Accueil
METAR-TAF:

METAR-TAF

Aéroports :

Aéroport d'Anvers

Anvers, Belgique

latitude: 51-12N, longitude: 004-28E, altitude: 12 m

Observation

Le bulletin a été fait il y a 20 minutes, à 17:50 UTC
Vent 5 kt de sud-est
Température 7°C
Humidité 87%
Pression 1013 hPa
Visibilité 10 km ou plus
Ciel couvert à une hauteur de 2300 ft
pluie faible

METAR: EBAW 271750Z 13005KT 9999 -RA OVC023 07/05 Q1013 NOSIG

Heure: 19:10 (18:10 UTC)

Prévision

Le bulletin a été fait il y a 1 heure et 10 minutes, à 17:00 UTC
Prévision valable du 27 à 18 UTC au 28 à 03 UTC
Vent 8 kt de sud/sud-est
Visibilité: 8000 m
Nuages épars à une hauteur de 1200 ft
Nuages fragmentés à une hauteur de 2500 ft
pluie faible
Probabilité 40% :
Temporairement
du 27 à 18 UTC au 27 à 21 UTC
Visibilité: 4000 m
Nuages fragmentés à une hauteur de 800 ft
pluie, pluie, bruine

TAF: EBAW 271700Z 2718/2803 16008KT 8000 -RA SCT012 BKN025 PROB40 TEMPO 2718/2721 4000 RA RADZ BKN008

Observations et prévisions météorologiques de plus de 4000 aéroports (messages METAR et TAF).

Les stations disponibles sont représentées par des disques jaunes et rouges sur la carte.

Passer la souris dessus pour voir le nom de la station.

Cliquer dessus pour voir les observations et prévisions météorologiques.

Pour changer de carte: cliquez sur les boutons verts avec une croix noire pour zoomer, sur le bouton vert avec un tiret pour effectuer un zoom arrière, ou sur les flèches vertes pour les cartes adjacentes.


METAR-TAF: